createdAt,value
2018-04-10T00:01:58.267Z,67.80
2018-04-10T00:04:26.641Z,66.60
2018-04-10T00:06:54.983Z,66.50
2018-04-10T00:09:22.603Z,66.50
2018-04-10T00:11:50.223Z,67.20
2018-04-10T00:14:17.806Z,66.50
2018-04-10T00:16:46.181Z,66.40
2018-04-10T00:19:14.564Z,66.60
2018-04-10T00:21:42.931Z,67.50
2018-04-10T00:24:11.239Z,66.50
2018-04-10T00:26:38.924Z,66.50
2018-04-10T00:29:06.523Z,66.40
2018-04-10T00:31:34.143Z,66.20
2018-04-10T00:34:01.717Z,66.10
2018-04-10T00:36:29.353Z,65.70
2018-04-10T00:39:04.930Z,64.90
2018-04-10T00:41:32.559Z,64.40
2018-04-10T00:44:00.120Z,64.20
2018-04-10T00:46:27.725Z,64.70
2018-04-10T00:48:55.363Z,64.20
2018-04-10T00:51:22.982Z,64.20
2018-04-10T00:53:52.308Z,64.20
2018-04-10T00:56:19.949Z,64.10
2018-04-10T00:58:47.582Z,63.60
2018-04-10T01:01:15.157Z,63.70
2018-04-10T01:03:42.799Z,64.10
2018-04-10T01:06:11.928Z,65.00
2018-04-10T01:08:39.558Z,65.00
2018-04-10T01:11:07.950Z,68.80
2018-04-10T01:13:36.345Z,69.70
2018-04-10T01:16:03.971Z,69.10
2018-04-10T01:18:31.611Z,69.50
2018-04-10T01:20:59.186Z,69.30
2018-04-10T01:23:26.741Z,69.30
2018-04-10T01:25:54.363Z,69.20
2018-04-10T01:28:21.958Z,69.20
2018-04-10T01:30:49.610Z,69.00
2018-04-10T01:33:17.196Z,69.10
2018-04-10T01:35:46.292Z,69.30
2018-04-10T01:38:13.934Z,69.30
2018-04-10T01:40:41.513Z,69.20
2018-04-10T01:43:09.111Z,69.20
2018-04-10T01:45:36.722Z,69.60
2018-04-10T01:48:04.323Z,69.40
2018-04-10T01:50:32.837Z,69.80
2018-04-10T01:53:00.373Z,69.70
2018-04-10T01:55:28.003Z,70.00
2018-04-10T01:57:56.371Z,71.20
2018-04-10T02:00:23.981Z,70.40
2018-04-10T02:02:51.525Z,70.30
2018-04-10T02:05:19.137Z,70.10
2018-04-10T02:07:59.358Z,69.90
2018-04-10T02:10:41.857Z,71.40
2018-04-10T02:13:09.435Z,70.70
2018-04-10T02:15:37.033Z,70.60
2018-04-10T02:18:04.611Z,71.00
2018-04-10T02:20:32.216Z,71.20
2018-04-10T02:22:59.826Z,71.80
2018-04-10T02:25:27.388Z,72.10
2018-04-10T02:27:55.034Z,72.70
2018-04-10T02:30:22.617Z,73.00
2018-04-10T02:32:50.992Z,73.50
2018-04-10T02:35:18.570Z,73.40
2018-04-10T02:37:46.942Z,74.20
2018-04-10T02:40:15.264Z,74.30
2018-04-10T02:42:42.882Z,74.90
2018-04-10T02:45:11.282Z,74.20
2018-04-10T02:47:38.879Z,74.20
2018-04-10T02:50:06.493Z,74.10
2018-04-10T02:52:34.107Z,74.10
2018-04-10T02:55:01.691Z,73.90
2018-04-10T02:57:29.275Z,74.30
2018-04-10T02:59:57.707Z,74.60
2018-04-10T03:02:25.293Z,74.50
2018-04-10T03:04:52.887Z,74.80
2018-04-10T03:07:20.501Z,75.20
2018-04-10T03:09:48.880Z,74.90
2018-04-10T03:12:16.494Z,74.90
2018-04-10T03:14:44.130Z,74.80
2018-04-10T03:17:11.707Z,74.60
2018-04-10T03:19:39.275Z,74.90
2018-04-10T03:22:06.897Z,74.90
2018-04-10T03:24:34.494Z,75.30
2018-04-10T03:27:02.081Z,75.30
2018-04-10T03:29:29.679Z,75.30
2018-04-10T03:31:57.283Z,75.70
2018-04-10T03:34:24.873Z,75.70
2018-04-10T03:36:52.507Z,76.80
2018-04-10T03:39:20.137Z,77.10
2018-04-10T03:41:48.507Z,77.00
2018-04-10T03:44:16.847Z,77.20
2018-04-10T03:46:44.457Z,77.20
2018-04-10T03:49:12.081Z,77.40
2018-04-10T03:51:39.711Z,77.40
2018-04-10T03:54:07.304Z,77.30
2018-04-10T03:56:34.927Z,77.70
2018-04-10T03:59:02.579Z,77.80
2018-04-10T04:01:30.191Z,77.60
2018-04-10T04:03:57.813Z,78.00
2018-04-10T04:06:25.457Z,77.30
2018-04-10T04:08:53.110Z,77.50
2018-04-10T04:11:20.711Z,78.30
2018-04-10T04:13:48.346Z,78.10
2018-04-10T04:16:27.808Z,78.40
2018-04-10T04:19:07.329Z,77.70
2018-04-10T04:21:46.873Z,78.00
2018-04-10T04:24:14.536Z,78.00
2018-04-10T04:26:42.133Z,78.60
2018-04-10T04:29:10.509Z,79.30
2018-04-10T04:31:38.097Z,79.30
2018-04-10T04:34:06.461Z,80.30
2018-04-10T04:36:34.445Z,80.00
2018-04-10T04:39:02.981Z,80.20
2018-04-10T04:41:30.677Z,80.10
2018-04-10T04:43:58.249Z,80.10
2018-04-10T04:46:26.626Z,79.40
2018-04-10T04:48:54.985Z,79.30
2018-04-10T04:51:22.538Z,79.20
2018-04-10T04:53:50.129Z,79.20
2018-04-10T04:56:18.445Z,78.60
2018-04-10T04:58:45.988Z,78.60
2018-04-10T05:01:13.611Z,78.40
2018-04-10T05:03:41.202Z,78.20
2018-04-10T05:06:12.327Z,78.00
2018-04-10T05:08:41.731Z,76.50
2018-04-10T05:11:10.077Z,75.80
2018-04-10T05:13:37.697Z,75.70
2018-04-10T05:16:05.279Z,75.20
2018-04-10T05:18:32.911Z,74.60
2018-04-10T05:21:00.509Z,74.10
2018-04-10T05:23:28.141Z,73.50
2018-04-10T05:25:55.751Z,73.10
2018-04-10T05:28:23.337Z,72.40
2018-04-10T05:30:51.713Z,71.60
2018-04-10T05:33:20.057Z,71.30
2018-04-10T05:35:47.700Z,71.30
2018-04-10T05:38:16.321Z,70.60
2018-04-10T05:40:43.913Z,69.90
2018-04-10T05:43:11.552Z,69.60
2018-04-10T05:45:39.943Z,67.50
2018-04-10T05:48:07.571Z,67.50
2018-04-10T05:50:35.169Z,65.20
2018-04-10T05:53:03.601Z,58.20
2018-04-10T05:55:31.209Z,58.20
2018-04-10T05:57:58.819Z,55.60
2018-04-10T06:00:26.433Z,53.40
2018-04-10T06:02:54.064Z,51.30
2018-04-10T06:05:33.937Z,51.00
2018-04-10T06:08:02.455Z,51.60
2018-04-10T06:10:30.074Z,51.60
2018-04-10T06:12:58.477Z,53.10
2018-04-10T06:15:26.036Z,53.10
2018-04-10T06:17:53.825Z,53.80
2018-04-10T06:20:21.749Z,54.30
2018-04-10T06:22:50.300Z,54.90
2018-04-10T06:25:17.907Z,54.90
2018-04-10T06:27:45.478Z,55.00
2018-04-10T06:30:13.036Z,55.00
2018-04-10T06:32:40.644Z,54.90
2018-04-10T06:35:08.311Z,55.30
2018-04-10T06:37:35.941Z,56.50
2018-04-10T06:40:03.536Z,55.60
2018-04-10T06:42:31.185Z,55.20
2018-04-10T06:44:58.850Z,55.60
2018-04-10T06:47:26.429Z,55.90
2018-04-10T06:49:54.823Z,56.20
2018-04-10T06:52:22.452Z,56.10
2018-04-10T06:54:54.027Z,56.10
2018-04-10T06:57:22.372Z,56.50
2018-04-10T06:59:51.004Z,56.50
2018-04-10T07:02:19.166Z,56.20
2018-04-10T07:04:48.223Z,55.90
2018-04-10T07:07:15.913Z,56.20
2018-04-10T07:09:46.061Z,56.50
2018-04-10T07:12:25.465Z,57.40
2018-04-10T07:14:54.860Z,56.80
2018-04-10T07:17:22.664Z,56.80
2018-04-10T07:19:51.193Z,57.80
2018-04-10T07:22:18.775Z,57.80
2018-04-10T07:24:46.403Z,58.10
2018-04-10T07:27:17.376Z,58.00
2018-04-10T07:29:45.808Z,58.40
2018-04-10T07:32:13.451Z,58.30
2018-04-10T07:34:41.957Z,59.40
2018-04-10T07:37:09.789Z,59.30
2018-04-10T07:39:37.454Z,59.00
2018-04-10T07:42:05.122Z,58.60
2018-04-10T07:44:33.607Z,57.90
2018-04-10T07:47:01.239Z,57.80
2018-04-10T07:49:28.856Z,57.80
2018-04-10T07:51:58.682Z,57.30
2018-04-10T07:54:28.358Z,56.80
2018-04-10T07:56:59.270Z,58.10
2018-04-10T07:59:27.456Z,57.40
2018-04-10T08:01:55.078Z,58.20
2018-04-10T08:04:22.764Z,57.00
2018-04-10T08:06:51.155Z,55.20
2018-04-10T08:09:18.784Z,55.20
2018-04-10T08:11:46.343Z,55.00
2018-04-10T08:14:13.967Z,55.00
2018-04-10T08:16:41.631Z,55.70
2018-04-10T08:19:09.289Z,53.20
2018-04-10T08:21:37.359Z,53.30
2018-04-10T08:24:04.957Z,53.40
2018-04-10T08:26:32.772Z,53.10
2018-04-10T08:29:00.526Z,53.80
2018-04-10T08:31:28.371Z,53.50
2018-04-10T08:33:56.863Z,53.50
2018-04-10T08:36:24.710Z,53.60
2018-04-10T08:38:53.343Z,52.80
2018-04-10T08:41:21.109Z,52.80
2018-04-10T08:43:48.815Z,53.30
2018-04-10T08:46:17.259Z,52.10
2018-04-10T08:48:44.911Z,52.00
2018-04-10T08:51:12.586Z,51.60
2018-04-10T08:53:40.406Z,51.40
2018-04-10T08:56:08.955Z,50.20
2018-04-10T08:58:37.468Z,50.90
2018-04-10T09:01:05.285Z,50.90
2018-04-10T09:03:33.109Z,49.80
2018-04-10T09:06:00.807Z,49.70
2018-04-10T09:08:28.518Z,49.30
2018-04-10T09:10:56.240Z,49.30
2018-04-10T09:13:23.878Z,48.90
2018-04-10T09:15:51.591Z,48.20
2018-04-10T09:18:19.311Z,47.70
2018-04-10T09:20:47.085Z,46.30
2018-04-10T09:23:15.144Z,48.40
2018-04-10T09:25:42.871Z,46.20
2018-04-10T09:28:11.340Z,46.20
2018-04-10T09:30:39.781Z,47.20
2018-04-10T09:33:07.623Z,46.70
2018-04-10T09:35:35.309Z,45.90
2018-04-10T09:38:03.235Z,45.60
2018-04-10T09:40:31.711Z,43.70
2018-04-10T09:43:00.172Z,44.20
2018-04-10T09:45:28.571Z,43.50
2018-04-10T09:47:56.971Z,41.80
2018-04-10T09:50:24.653Z,41.80
2018-04-10T09:52:52.277Z,41.60
2018-04-10T09:55:20.801Z,42.80
2018-04-10T09:57:48.442Z,42.70
2018-04-10T10:00:16.408Z,42.30
2018-04-10T10:02:44.035Z,42.50
2018-04-10T10:05:13.477Z,41.90
2018-04-10T10:07:41.961Z,41.70
2018-04-10T10:10:09.547Z,42.00
2018-04-10T10:12:37.498Z,43.20
2018-04-10T10:15:05.452Z,41.80
2018-04-10T10:17:37.392Z,41.70
2018-04-10T10:20:05.250Z,42.00
2018-04-10T10:22:32.902Z,41.00
2018-04-10T10:25:00.510Z,39.20
2018-04-10T10:27:28.396Z,39.40
2018-04-10T10:29:56.841Z,40.00
2018-04-10T10:32:24.425Z,40.00
2018-04-10T10:34:54.715Z,39.90
2018-04-10T10:37:22.497Z,39.50
2018-04-10T10:39:50.101Z,40.00
2018-04-10T10:42:17.819Z,39.50
2018-04-10T10:44:45.531Z,40.30
2018-04-10T10:47:13.381Z,39.00
2018-04-10T10:49:44.827Z,38.90
2018-04-10T10:52:13.013Z,39.10
2018-04-10T10:54:40.653Z,37.40
2018-04-10T10:57:08.290Z,37.60
2018-04-10T10:59:35.934Z,36.60
2018-04-10T11:02:04.292Z,35.00
2018-04-10T11:04:31.896Z,34.90
2018-04-10T11:07:00.840Z,35.30
2018-04-10T11:09:29.573Z,34.30
2018-04-10T11:11:57.210Z,34.90
2018-04-10T11:14:24.769Z,32.70
2018-04-10T11:16:52.394Z,34.40
2018-04-10T11:19:23.105Z,33.30
2018-04-10T11:21:51.997Z,32.50
2018-04-10T11:24:19.617Z,32.40
2018-04-10T11:26:51.402Z,33.80
2018-04-10T11:29:19.000Z,33.70
2018-04-10T11:34:34.151Z,32.40
2018-04-10T11:37:01.856Z,31.30
2018-04-10T11:39:30.476Z,30.70
2018-04-10T11:41:58.132Z,30.70
2018-04-10T11:46:59.752Z,31.30
2018-04-10T11:49:27.336Z,31.10
2018-04-10T11:51:55.682Z,35.20
2018-04-10T11:54:23.365Z,35.20
2018-04-10T11:56:50.979Z,36.80
2018-04-10T11:59:18.585Z,36.20
2018-04-10T12:01:46.174Z,35.40
2018-04-10T12:04:14.572Z,37.10
2018-04-10T12:06:42.298Z,37.00
2018-04-10T12:09:09.995Z,35.80
2018-04-10T12:11:37.823Z,36.20
2018-04-10T12:14:05.997Z,37.60
2018-04-10T12:16:34.201Z,37.20
2018-04-10T12:19:01.837Z,37.00
2018-04-10T12:21:29.475Z,36.70
2018-04-10T12:23:57.083Z,36.90
2018-04-10T12:26:28.547Z,36.90
2018-04-10T12:29:00.013Z,33.90
2018-04-10T12:31:27.635Z,33.60
2018-04-10T12:33:55.281Z,31.30
2018-04-10T12:36:22.921Z,30.20
2018-04-10T12:38:50.508Z,29.50
2018-04-10T12:41:18.148Z,28.60
2018-04-10T12:43:45.861Z,28.70
2018-04-10T12:46:13.491Z,28.00
2018-04-10T12:48:41.921Z,26.80
2018-04-10T12:51:09.565Z,26.90
2018-04-10T12:53:39.145Z,26.50
2018-04-10T12:56:06.741Z,27.00
2018-04-10T12:58:34.344Z,26.70
2018-04-10T13:01:02.639Z,26.20
2018-04-10T13:03:33.215Z,26.20
2018-04-10T13:06:00.742Z,25.80
2018-04-10T13:08:28.340Z,25.10
2018-04-10T13:10:56.074Z,25.90
2018-04-10T13:13:25.872Z,26.70
2018-04-10T13:15:53.418Z,26.60
2018-04-10T13:18:20.962Z,27.60
2018-04-10T13:20:48.488Z,29.70
2018-04-10T13:23:16.040Z,28.10
2018-04-10T13:25:43.778Z,29.10
2018-04-10T13:28:11.340Z,30.10
2018-04-10T13:30:39.034Z,29.60
2018-04-10T13:33:11.041Z,30.30
2018-04-10T13:35:39.032Z,29.70
2018-04-10T13:38:06.586Z,31.80
2018-04-10T13:40:34.116Z,33.30
2018-04-10T13:43:01.636Z,33.70
2018-04-10T13:45:29.186Z,35.40
2018-04-10T13:47:57.479Z,35.40
2018-04-10T13:50:25.005Z,35.30
2018-04-10T13:53:00.499Z,36.20
2018-04-10T13:55:43.109Z,36.20
2018-04-10T13:58:24.023Z,36.20
2018-04-10T14:00:53.095Z,35.50
2018-04-10T14:03:20.733Z,36.00
2018-04-10T14:05:48.314Z,36.40
2018-04-10T14:08:15.859Z,37.70
2018-04-10T14:10:43.390Z,38.50
2018-04-10T14:13:11.704Z,38.80
2018-04-10T14:15:39.284Z,38.70
2018-04-10T14:18:07.015Z,40.10
2018-04-10T14:20:34.717Z,40.60
2018-04-10T14:23:03.051Z,41.80
2018-04-10T14:25:30.571Z,41.80
2018-04-10T14:27:58.874Z,42.60
2018-04-10T14:30:27.921Z,43.10
2018-04-10T14:32:55.430Z,43.00
2018-04-10T14:35:23.733Z,42.30
2018-04-10T14:37:51.266Z,42.30
2018-04-10T14:40:18.886Z,41.40
2018-04-10T14:42:47.928Z,41.60
2018-04-10T14:45:15.560Z,41.70
2018-04-10T14:47:43.086Z,42.20
2018-04-10T14:50:10.662Z,41.90
2018-04-10T14:52:38.170Z,42.40
2018-04-10T14:55:05.696Z,42.10
2018-04-10T14:57:33.242Z,40.60
2018-04-10T15:00:02.274Z,40.30
2018-04-10T15:02:29.828Z,40.30
2018-04-10T15:04:58.119Z,40.00
2018-04-10T15:07:25.700Z,40.00
2018-04-10T15:09:53.211Z,40.80
2018-04-10T15:12:21.544Z,40.70
2018-04-10T15:14:49.054Z,40.70
2018-04-10T15:17:17.339Z,40.00
2018-04-10T15:19:45.829Z,41.40
2018-04-10T15:22:13.613Z,41.40
2018-04-10T15:24:53.279Z,42.00
2018-04-10T15:27:20.834Z,41.50
2018-04-10T15:29:48.355Z,40.50
2018-04-10T15:32:15.864Z,40.50
2018-04-10T15:34:43.407Z,40.70
2018-04-10T15:37:10.937Z,40.30
2018-04-10T15:39:38.524Z,41.40
2018-04-10T15:42:06.133Z,40.90
2018-04-10T15:44:34.145Z,41.70
2018-04-10T15:47:02.332Z,40.60
2018-04-10T15:49:30.748Z,40.60
2018-04-10T15:51:59.092Z,41.20
2018-04-10T15:54:26.712Z,41.10
2018-04-10T15:56:54.342Z,41.60
2018-04-10T15:59:22.715Z,42.10
2018-04-10T16:01:50.312Z,42.10
2018-04-10T16:04:17.944Z,42.80
2018-04-10T16:06:46.345Z,42.50
2018-04-10T16:09:13.911Z,42.50
2018-04-10T16:11:41.513Z,42.50
2018-04-10T16:14:09.082Z,43.10
2018-04-10T16:16:57.557Z,43.70
2018-04-10T16:19:39.290Z,44.30
2018-04-10T16:22:06.898Z,44.30
2018-04-10T16:24:34.493Z,44.80
2018-04-10T16:27:02.174Z,44.90
2018-04-10T16:29:29.863Z,45.40
2018-04-10T16:31:57.475Z,45.90
2018-04-10T16:34:48.893Z,45.30
2018-04-10T16:37:16.537Z,46.20
2018-04-10T16:39:44.179Z,46.60
2018-04-10T16:42:15.303Z,47.00
2018-04-10T16:44:42.919Z,47.20
2018-04-10T16:47:11.304Z,48.50
2018-04-10T16:49:39.691Z,48.60
2018-04-10T16:52:07.494Z,48.60
2018-04-10T16:54:35.097Z,48.90
2018-04-10T16:57:08.822Z,48.90
2018-04-10T16:59:36.561Z,49.60
2018-04-10T17:02:04.270Z,50.50
2018-04-10T17:04:31.969Z,50.70
2018-04-10T17:06:59.591Z,51.60
2018-04-10T17:09:28.117Z,52.90
2018-04-10T17:11:55.873Z,53.90
2018-04-10T17:14:23.646Z,55.00
2018-04-10T17:16:51.274Z,54.90
2018-04-10T17:19:40.221Z,55.50
2018-04-10T17:22:07.855Z,57.60
2018-04-10T17:24:35.487Z,58.60
2018-04-10T17:27:03.159Z,59.30
2018-04-10T17:29:30.767Z,60.60
2018-04-10T17:31:58.770Z,61.50
2018-04-10T17:34:26.404Z,62.30
2018-04-10T17:36:54.086Z,64.60
2018-04-10T17:39:21.888Z,61.40
2018-04-10T17:41:49.479Z,62.00
2018-04-10T17:44:17.099Z,63.30
2018-04-10T17:46:45.461Z,64.10
2018-04-10T17:49:16.783Z,64.00
2018-04-10T17:51:49.386Z,64.50
2018-04-10T17:54:17.609Z,65.60
2018-04-10T17:56:48.341Z,65.20
2018-04-10T17:59:15.972Z,64.70
2018-04-10T18:01:43.959Z,64.20
2018-04-10T18:04:11.532Z,65.30
2018-04-10T18:06:39.143Z,64.70
2018-04-10T18:09:06.791Z,63.30
2018-04-10T18:11:34.475Z,62.90
2018-04-10T18:14:02.233Z,62.90
2018-04-10T18:16:29.931Z,63.30
2018-04-10T18:18:58.616Z,66.60
2018-04-10T18:21:26.313Z,66.60
2018-04-10T18:23:53.885Z,66.90
2018-04-10T18:26:21.492Z,66.00
2018-04-10T18:28:49.110Z,67.00
2018-04-10T18:31:16.778Z,66.60
2018-04-10T18:33:44.403Z,65.60
2018-04-10T18:36:13.184Z,66.50
2018-04-10T18:38:41.088Z,66.40
2018-04-10T18:41:08.714Z,63.80
2018-04-10T18:43:36.383Z,62.80
2018-04-10T18:46:04.714Z,59.30
2018-04-10T18:48:32.340Z,59.40
2018-04-10T18:50:59.976Z,59.70
2018-04-10T18:53:27.592Z,56.90
2018-04-10T18:55:55.148Z,55.60
2018-04-10T18:58:22.781Z,57.10
2018-04-10T19:00:51.852Z,57.60
2018-04-10T19:03:20.274Z,59.00
2018-04-10T19:05:48.158Z,59.00
2018-04-10T19:08:16.572Z,61.10
2018-04-10T19:10:44.248Z,61.10
2018-04-10T19:13:11.816Z,61.00
2018-04-10T19:15:39.628Z,61.40
2018-04-10T19:18:08.021Z,61.80
2018-04-10T19:20:35.630Z,61.80
2018-04-10T19:23:03.240Z,61.70
2018-04-10T19:25:30.842Z,60.90
2018-04-10T19:27:58.409Z,60.10
2018-04-10T19:30:26.014Z,58.20
2018-04-10T19:32:53.644Z,61.50
2018-04-10T19:35:21.270Z,61.80
2018-04-10T19:37:48.850Z,62.80
2018-04-10T19:40:16.488Z,65.90
2018-04-10T19:42:44.110Z,68.70
2018-04-10T19:45:12.655Z,69.00
2018-04-10T19:47:40.379Z,71.20
2018-04-10T19:50:07.977Z,71.30
2018-04-10T19:52:36.093Z,73.60
2018-04-10T19:55:04.416Z,74.80
2018-04-10T19:57:32.042Z,74.80
2018-04-10T19:59:59.649Z,75.80
2018-04-10T20:02:27.270Z,76.90
2018-04-10T20:04:54.896Z,77.40
2018-04-10T20:07:22.515Z,78.20
2018-04-10T20:09:50.114Z,78.30
2018-04-10T20:12:17.720Z,78.60
2018-04-10T20:14:53.147Z,78.00
2018-04-10T20:17:20.775Z,78.00
2018-04-10T20:19:48.349Z,77.80
2018-04-10T20:22:16.034Z,78.10
2018-04-10T20:24:44.439Z,76.90
2018-04-10T20:27:12.113Z,77.60
2018-04-10T20:29:39.711Z,77.30
2018-04-10T20:32:08.094Z,77.20
2018-04-10T20:34:35.716Z,77.20
2018-04-10T20:37:03.362Z,77.50
2018-04-10T20:39:30.959Z,77.00
2018-04-10T20:41:58.557Z,78.00
2018-04-10T20:44:26.951Z,79.10
2018-04-10T20:46:55.476Z,79.10
2018-04-10T20:49:23.106Z,78.70
2018-04-10T20:52:21.296Z,78.90
2018-04-10T20:54:49.412Z,78.10
2018-04-10T20:57:17.782Z,79.10
2018-04-10T20:59:45.388Z,78.90
2018-04-10T21:02:18.632Z,79.50
2018-04-10T21:07:54.174Z,79.70
2018-04-10T21:10:21.695Z,80.60
2018-04-10T21:12:49.251Z,80.50
2018-04-10T21:15:16.760Z,81.90
2018-04-10T21:17:44.264Z,81.40
2018-04-10T21:20:11.845Z,82.80
2018-04-10T21:22:39.394Z,83.60
2018-04-10T21:25:07.786Z,85.40
2018-04-10T21:27:36.153Z,86.00
2018-04-10T21:30:04.550Z,86.10
2018-04-10T21:32:32.146Z,86.10
2018-04-10T21:35:01.712Z,86.40
2018-04-10T21:37:30.058Z,87.70
2018-04-10T21:39:57.629Z,87.70
2018-04-10T21:42:31.184Z,88.70
2018-04-10T21:45:02.792Z,86.90
2018-04-10T21:47:30.385Z,88.40
2018-04-10T21:49:58.808Z,87.80
2018-04-10T21:52:32.560Z,88.70
2018-04-10T21:55:09.024Z,88.60
2018-04-10T21:57:37.262Z,88.50
2018-04-10T22:00:05.635Z,89.20
2018-04-10T22:02:34.017Z,89.10
2018-04-10T22:05:05.216Z,89.00
2018-04-10T22:07:32.818Z,89.60
2018-04-10T22:10:01.218Z,89.50
2018-04-10T22:12:28.795Z,89.40
2018-04-10T22:14:56.401Z,88.70
2018-04-10T22:17:24.032Z,89.10
2018-04-10T22:19:51.630Z,89.30
2018-04-10T22:22:20.004Z,88.20
2018-04-10T22:24:47.592Z,88.70
2018-04-10T22:27:15.237Z,89.20
2018-04-10T22:29:43.612Z,89.30
2018-04-10T22:32:11.210Z,89.30
2018-04-10T22:34:38.775Z,89.20
2018-04-10T22:37:06.361Z,89.40
2018-04-10T22:39:34.729Z,90.00
2018-04-10T22:42:02.342Z,90.00
2018-04-10T22:44:36.820Z,90.10
2018-04-10T22:47:07.116Z,89.50
2018-04-10T22:49:34.795Z,89.50
2018-04-10T22:52:02.444Z,89.50
2018-04-10T22:54:30.877Z,89.90
2018-04-10T22:56:58.485Z,89.10
2018-04-10T22:59:26.097Z,89.30
2018-04-10T23:01:53.711Z,89.40
2018-04-10T23:04:21.337Z,89.70
2018-04-10T23:06:48.932Z,89.70
2018-04-10T23:09:17.272Z,89.90
2018-04-10T23:11:44.908Z,89.90
2018-04-10T23:14:12.520Z,90.00
2018-04-10T23:16:40.136Z,89.70
2018-04-10T23:19:07.735Z,90.00
2018-04-10T23:21:35.334Z,90.10
2018-04-10T23:24:02.959Z,90.10
2018-04-10T23:26:30.551Z,89.90
2018-04-10T23:28:58.899Z,89.60
2018-04-10T23:31:26.518Z,89.60
2018-04-10T23:33:54.088Z,89.70
2018-04-10T23:36:21.709Z,89.80
2018-04-10T23:38:50.081Z,89.60
2018-04-10T23:41:17.806Z,89.70
2018-04-10T23:43:45.429Z,90.00
2018-04-10T23:46:12.993Z,89.40
2018-04-10T23:48:40.568Z,88.60
2018-04-10T23:51:08.185Z,89.20
2018-04-10T23:53:35.809Z,88.50
2018-04-10T23:56:03.422Z,88.00
2018-04-10T23:58:31.819Z,88.50
